Time;durP1;ratioP1;P1;durP2;ratioP2;P2;SDS_P1;SDS_P2;PMS_P1;PMS_P2;Temp;Humidity;BMP_temperature;BMP_pressure;BME280_temperature;BME280_humidity;BME280_pressure;Samples;Min_cycle;Max_cycle;Signal;HPM_P1;HPM_P2
2022/09/15 00:08:47;;;;;;;8.30;2.50;;;22.60;56.50;;;;;;20843949;28;20049;-58
2022/09/15 00:18:49;;;;;;;6.77;2.30;;;22.50;56.70;;;;;;20842747;28;20062;-57
2022/09/15 00:28:51;;;;;;;8.65;2.83;;;22.40;57.30;;;;;;20841534;28;20089;-59
2022/09/15 00:38:53;;;;;;;5.90;2.33;;;22.30;57.70;;;;;;20841685;28;20049;-56
2022/09/15 00:48:59;;;;;;;4.97;2.33;;;22.30;57.70;;;;;;20839446;28;20142;-57
2022/09/15 00:59:05;;;;;;;6.50;2.58;;;22.30;58.00;;;;;;20839142;28;20037;-57
2022/09/15 01:09:22;;;;;;;3.40;2.15;;;22.20;58.50;;;;;;20838916;28;20058;-57
2022/09/15 01:19:33;;;;;;;6.90;2.80;;;22.30;58.40;;;;;;20837851;28;20387;-59
2022/09/15 01:30:01;;;;;;;5.13;2.38;;;22.20;58.90;;;;;;20836786;28;20132;-56
2022/09/15 01:40:05;;;;;;;6.75;2.60;;;22.20;58.90;;;;;;20836063;28;20049;-58
2022/09/15 01:50:23;;;;;;;6.82;2.90;;;22.10;59.40;;;;;;20835894;28;20060;-57
2022/09/15 02:00:25;;;;;;;4.88;2.30;;;22.10;59.50;;;;;;20816338;28;20057;-57
2022/09/15 02:10:40;;;;;;;6.70;2.72;;;22.00;59.90;;;;;;20833580;28;20052;-58
2022/09/15 02:20:58;;;;;;;5.88;2.67;;;22.00;60.00;;;;;;20833537;28;20052;-58
2022/09/15 02:31:02;;;;;;;4.65;2.42;;;22.00;60.20;;;;;;20831890;28;20062;-57
2022/09/15 02:41:05;;;;;;;6.03;2.55;;;21.90;60.70;;;;;;20832269;28;20041;-56
2022/09/15 02:51:08;;;;;;;7.80;2.47;;;21.80;60.90;;;;;;20830436;28;20137;-57
2022/09/15 03:01:15;;;;;;;4.28;1.90;;;21.70;61.40;;;;;;20830531;28;20115;-58
2022/09/15 03:11:22;;;;;;;4.47;2.22;;;21.80;61.10;;;;;;20829436;28;20111;-56
2022/09/15 03:21:28;;;;;;;7.03;2.47;;;21.90;61.20;;;;;;20830288;28;20062;-57
2022/09/15 03:31:31;;;;;;;9.38;2.88;;;21.80;61.40;;;;;;20829822;28;20120;-56
2022/09/15 03:41:33;;;;;;;6.10;3.07;;;21.80;61.50;;;;;;20829407;28;20049;-57
2022/09/15 03:51:34;;;;;;;7.82;2.63;;;21.90;61.10;;;;;;20829206;28;20464;-57
2022/09/15 04:01:36;;;;;;;8.57;2.83;;;21.90;61.00;;;;;;20828476;28;20418;-57
2022/09/15 04:11:39;;;;;;;7.97;2.58;;;21.80;61.40;;;;;;20829281;28;20052;-56
2022/09/15 04:21:42;;;;;;;7.95;3.22;;;21.80;61.60;;;;;;20819918;28;20053;-57
2022/09/15 04:32:02;;;;;;;7.88;3.38;;;21.90;62.00;;;;;;20843263;28;20061;-57
2022/09/15 04:42:05;;;;;;;6.80;3.60;;;21.90;62.00;;;;;;20841916;28;20041;-57
2022/09/15 04:52:07;;;;;;;8.77;3.53;;;21.70;62.40;;;;;;20841008;28;20064;-58
2022/09/15 05:02:09;;;;;;;7.88;3.00;;;21.80;62.10;;;;;;20840574;28;20052;-57
2022/09/15 05:12:10;;;;;;;7.95;3.58;;;21.80;62.40;;;;;;20838983;28;20049;-60
2022/09/15 05:22:12;;;;;;;12.05;3.47;;;21.70;62.70;;;;;;20838057;28;20077;-60
2022/09/15 05:32:14;;;;;;;7.20;2.45;;;21.60;63.00;;;;;;20835752;28;20089;-56
2022/09/15 05:42:16;;;;;;;7.10;2.85;;;21.60;63.10;;;;;;20836279;28;20144;-57
2022/09/15 05:52:18;;;;;;;6.03;2.55;;;21.60;63.20;;;;;;20836150;28;20053;-57
2022/09/15 06:02:20;;;;;;;4.85;2.25;;;21.70;62.70;;;;;;20834697;28;20057;-57
2022/09/15 06:12:22;;;;;;;10.27;2.95;;;21.70;62.30;;;;;;20833709;28;20081;-56
2022/09/15 06:22:24;;;;;;;7.00;2.63;;;21.70;62.30;;;;;;20833828;28;20499;-56
2022/09/15 06:32:25;;;;;;;9.57;3.72;;;21.70;62.40;;;;;;20831520;28;20115;-57
2022/09/15 06:42:27;;;;;;;7.90;2.53;;;21.80;67.20;;;;;;20830393;28;20045;-57
2022/09/15 06:52:28;;;;;;;7.72;3.85;;;21.70;66.90;;;;;;20830985;28;20451;-56
2022/09/15 07:02:30;;;;;;;14.13;4.68;;;21.60;67.90;;;;;;20830749;28;20057;-57
2022/09/15 07:12:32;;;;;;;13.70;5.80;;;21.30;73.40;;;;;;20830122;28;20045;-57
2022/09/15 07:22:34;;;;;;;13.65;6.15;;;21.00;74.80;;;;;;20830965;28;20063;-57
2022/09/15 07:32:35;;;;;;;9.77;3.97;;;20.80;75.40;;;;;;20829195;28;20062;-57
2022/09/15 07:42:40;;;;;;;15.13;4.75;;;20.70;74.90;;;;;;20829804;28;20048;-57
2022/09/15 07:52:42;;;;;;;9.05;3.70;;;20.70;75.30;;;;;;20834590;28;20493;-55
2022/09/15 08:02:43;;;;;;;6.18;3.03;;;20.70;74.90;;;;;;20843343;28;20045;-56
2022/09/15 08:12:45;;;;;;;7.32;3.78;;;20.60;75.30;;;;;;20843550;28;20451;-55
2022/09/15 08:22:47;;;;;;;8.00;4.45;;;20.60;76.60;;;;;;20825816;28;20132;-56
2022/09/15 08:32:49;;;;;;;4.65;2.40;;;20.50;76.50;;;;;;20840889;28;20140;-57
2022/09/15 08:42:55;;;;;;;6.97;3.30;;;20.70;70.10;;;;;;20840742;28;20056;-57
2022/09/15 08:53:12;;;;;;;11.18;5.50;;;23.10;63.30;;;;;;20839294;28;20046;-56
2022/09/15 09:04:04;;;;;;;8.73;4.20;;;23.70;63.90;;;;;;20834752;28;20068;-57
2022/09/15 09:14:22;;;;;;;10.03;5.00;;;23.70;63.30;;;;;;20503941;28;20063;-59
2022/09/15 09:24:34;;;;;;;9.55;5.25;;;23.70;63.80;;;;;;20500180;28;20067;-56
2022/09/15 09:35:02;;;;;;;8.13;4.47;;;22.60;67.80;;;;;;20549990;28;20091;-58
2022/09/15 09:45:06;;;;;;;11.02;5.20;;;22.20;66.20;;;;;;20582364;28;20467;-56
2022/09/15 09:55:26;;;;;;;11.13;5.43;;;23.20;66.60;;;;;;20671612;28;20054;-61
2022/09/15 10:05:28;;;;;;;8.68;5.50;;;23.10;66.30;;;;;;20669727;28;20054;-57
2022/09/15 10:15:33;;;;;;;10.87;4.57;;;22.90;65.80;;;;;;20668344;28;20089;-57
2022/09/15 10:25:37;;;;;;;7.60;4.43;;;23.10;64.20;;;;;;20668061;28;20046;-57
2022/09/15 10:35:41;;;;;;;9.70;4.53;;;22.60;65.40;;;;;;20666881;28;20050;-59
2022/09/15 10:45:47;;;;;;;8.43;3.95;;;23.10;63.70;;;;;;20711558;28;20375;-58
2022/09/15 10:55:57;;;;;;;6.80;3.78;;;23.50;61.60;;;;;;20701881;28;20505;-55
2022/09/15 11:06:31;;;;;;;6.70;3.28;;;24.40;59.50;;;;;;20747365;28;20133;-57
2022/09/15 11:16:49;;;;;;;7.13;3.25;;;24.70;57.90;;;;;;20745661;28;20114;-56
2022/09/15 11:27:12;;;;;;;6.50;3.85;;;24.90;57.00;;;;;;20761002;28;20128;-57
2022/09/15 11:37:22;;;;;;;5.72;3.72;;;24.00;60.50;;;;;;20843989;28;20507;-54
2022/09/15 11:47:27;;;;;;;8.48;3.08;;;23.70;60.30;;;;;;20843912;28;20128;-58
2022/09/15 11:57:46;;;;;;;6.68;2.70;;;24.10;59.20;;;;;;20844232;28;20054;-59
2022/09/15 12:07:54;;;;;;;11.45;3.42;;;24.60;56.80;;;;;;20842493;28;20394;-57
2022/09/15 12:18:05;;;;;;;6.13;3.10;;;24.90;55.70;;;;;;20824078;28;20053;-56
2022/09/15 12:28:22;;;;;;;6.37;3.30;;;24.40;55.70;;;;;;20841587;28;20111;-57
2022/09/15 12:38:29;;;;;;;4.28;2.47;;;24.40;56.10;;;;;;20840230;28;20054;-57
2022/09/15 12:48:34;;;;;;;2.10;1.55;;;24.60;55.90;;;;;;20840269;28;20045;-57
2022/09/15 12:58:38;;;;;;;3.15;1.60;;;24.90;53.00;;;;;;20839452;28;20049;-57
2022/09/15 13:08:48;;;;;;;2.60;1.45;;;24.90;51.40;;;;;;20838297;28;20053;-56
2022/09/15 13:19:17;;;;;;;4.63;1.83;;;24.90;51.00;;;;;;20837850;28;20140;-58
2022/09/15 13:29:21;;;;;;;5.50;1.70;;;24.90;51.50;;;;;;20835475;28;20518;-58
2022/09/15 13:39:26;;;;;;;2.42;1.77;;;24.80;50.90;;;;;;20836738;28;20045;-57
2022/09/15 13:49:32;;;;;;;2.00;1.10;;;24.70;51.10;;;;;;20835600;28;20056;-57
2022/09/15 13:59:33;;;;;;;2.15;1.25;;;25.20;49.00;;;;;;20835234;28;20068;-55
2022/09/15 14:09:43;;;;;;;1.67;1.17;;;25.10;48.40;;;;;;20833718;28;20060;-56
2022/09/15 14:19:48;;;;;;;3.80;1.77;;;25.10;48.20;;;;;;20832990;28;20302;-57
2022/09/15 14:29:56;;;;;;;2.22;1.02;;;25.30;46.80;;;;;;20831679;28;20085;-57
2022/09/15 14:40:00;;;;;;;2.60;1.13;;;25.40;46.20;;;;;;20832489;28;20512;-56
2022/09/15 14:50:29;;;;;;;3.13;2.00;;;25.60;45.40;;;;;;20830346;28;20142;-57
2022/09/15 15:00:36;;;;;;;4.47;1.83;;;26.00;45.50;;;;;;20826598;28;20052;-57
2022/09/15 15:10:39;;;;;;;3.13;1.73;;;25.90;43.90;;;;;;20829501;28;20140;-57
2022/09/15 15:20:48;;;;;;;0.73;0.50;;;26.00;43.80;;;;;;20829383;28;20046;-57
2022/09/15 15:30:50;;;;;;;2.50;1.25;;;26.20;43.60;;;;;;20828505;28;20045;-57
2022/09/15 15:40:58;;;;;;;;;;;26.20;42.80;;;;;;20829393;28;20045;-56
2022/09/15 15:51:01;;;;;;;1.58;0.77;;;26.20;42.80;;;;;;20826735;28;19963;-64
2022/09/15 16:01:03;;;;;;;1.15;0.80;;;26.40;44.60;;;;;;20825582;28;20501;-56
2022/09/15 16:11:08;;;;;;;1.73;0.70;;;26.40;43.30;;;;;;20823307;28;20045;-60
2022/09/15 16:21:27;;;;;;;1.38;0.70;;;26.60;42.40;;;;;;20836392;28;20051;-56
2022/09/15 16:31:29;;;;;;;2.63;0.88;;;26.60;41.80;;;;;;20817091;28;20058;-55
2022/09/15 16:41:32;;;;;;;3.20;1.02;;;26.20;42.50;;;;;;20836572;28;20405;-56
2022/09/15 16:51:34;;;;;;;1.60;0.80;;;26.50;42.20;;;;;;20836475;28;20393;-54
2022/09/15 17:01:36;;;;;;;1.40;0.80;;;26.40;43.40;;;;;;20835349;28;20041;-59
2022/09/15 17:11:37;;;;;;;;;;;26.40;44.20;;;;;;20834529;28;20056;-54
2022/09/15 17:21:40;;;;;;;1.92;0.68;;;25.70;47.30;;;;;;20834937;28;20289;-60
2022/09/15 17:31:42;;;;;;;1.67;1.00;;;24.90;50.20;;;;;;20831033;28;20067;-57
2022/09/15 17:41:43;;;;;;;3.63;2.10;;;24.20;52.00;;;;;;20830723;28;20119;-54
2022/09/15 17:51:45;;;;;;;;;;;25.00;52.70;;;;;;20831631;28;20045;-53
2022/09/15 18:01:47;;;;;;;2.15;1.10;;;25.60;51.50;;;;;;20830925;28;19927;-61
2022/09/15 18:11:48;;;;;;;;;;;25.00;52.20;;;;;;20831473;28;20045;-58
2022/09/15 18:21:52;;;;;;;3.08;1.20;;;24.40;53.10;;;;;;20830128;28;20335;-58
2022/09/15 18:31:55;;;;;;;1.45;0.98;;;24.50;52.80;;;;;;20830241;28;20115;-62
2022/09/15 18:41:56;;;;;;;3.28;1.08;;;24.50;53.10;;;;;;20829944;28;20053;-60
2022/09/15 18:51:58;;;;;;;4.93;1.40;;;24.70;52.90;;;;;;20829968;28;20446;-65
2022/09/15 19:02:00;;;;;;;5.80;1.58;;;24.90;52.80;;;;;;20830164;28;20501;-54
2022/09/15 19:12:03;;;;;;;3.40;1.37;;;25.10;52.90;;;;;;20829788;28;20141;-56
2022/09/15 19:22:05;;;;;;;2.10;1.40;;;25.20;51.50;;;;;;20809344;28;20057;-54
2022/09/15 19:32:10;;;;;;;3.53;2.00;;;25.20;51.00;;;;;;20826414;28;20064;-60
2022/09/15 19:42:12;;;;;;;5.68;1.85;;;25.20;51.30;;;;;;20828075;28;20087;-55
2022/09/15 19:52:14;;;;;;;4.65;2.40;;;25.20;51.40;;;;;;20838139;28;20045;-55
2022/09/15 20:02:16;;;;;;;3.07;2.00;;;24.10;55.30;;;;;;20842882;28;20045;-55
2022/09/15 20:12:18;;;;;;;4.47;2.17;;;23.60;57.50;;;;;;20842192;28;20057;-57
2022/09/15 20:22:20;;;;;;;4.35;1.98;;;23.20;58.70;;;;;;20841921;28;20584;-56
2022/09/15 20:32:22;;;;;;;4.95;2.50;;;23.10;59.00;;;;;;20840112;28;20214;-54
2022/09/15 20:42:24;;;;;;;6.10;2.80;;;23.10;59.10;;;;;;20839577;28;20060;-57
2022/09/15 20:52:30;;;;;;;5.53;2.70;;;23.00;59.70;;;;;;20838443;28;20151;-56
2022/09/15 21:02:31;;;;;;;5.50;3.50;;;22.90;59.80;;;;;;20819685;28;20057;-56
2022/09/15 21:12:33;;;;;;;5.73;2.73;;;22.90;60.30;;;;;;20837714;28;20081;-55
2022/09/15 21:22:36;;;;;;;6.70;3.40;;;22.70;60.60;;;;;;20837123;28;20135;-55
2022/09/15 21:32:38;;;;;;;4.90;3.23;;;22.70;61.90;;;;;;20836206;28;20065;-55
2022/09/15 21:42:40;;;;;;;5.63;2.30;;;22.50;62.90;;;;;;20835691;28;20060;-56
2022/09/15 21:52:42;;;;;;;6.00;2.50;;;22.40;64.00;;;;;;20837186;28;20409;-55
2022/09/15 22:02:43;;;;;;;4.73;2.40;;;22.30;64.80;;;;;;20834919;28;20070;-59
2022/09/15 22:12:45;;;;;;;3.33;1.67;;;22.10;65.60;;;;;;20833020;28;20049;-55
2022/09/15 22:22:47;;;;;;;3.85;2.20;;;22.00;66.80;;;;;;20832971;28;20075;-56
2022/09/15 22:32:49;;;;;;;7.37;3.10;;;22.00;66.80;;;;;;20813755;28;20141;-55
2022/09/15 22:42:50;;;;;;;4.13;3.20;;;22.00;66.40;;;;;;20832183;28;20046;-55
2022/09/15 22:52:54;;;;;;;5.35;2.40;;;21.90;66.60;;;;;;20831304;28;20493;-56
2022/09/15 23:02:56;;;;;;;4.77;2.50;;;21.90;67.00;;;;;;20812401;28;20049;-56
2022/09/15 23:12:58;;;;;;;4.18;2.00;;;21.70;68.80;;;;;;20829546;28;20053;-55
2022/09/15 23:23:00;;;;;;;2.63;1.30;;;21.60;70.20;;;;;;20834825;28;20115;-56
2022/09/15 23:33:02;;;;;;;2.45;1.20;;;21.30;70.60;;;;;;20845572;28;20053;-58
2022/09/15 23:43:04;;;;;;;3.63;1.38;;;21.20;70.60;;;;;;20847838;28;20053;-54
2022/09/15 23:53:05;;;;;;;2.42;1.45;;;21.10;71.40;;;;;;20845361;28;20049;-55
